This is the latest recevied weather packets stored in our database for station/object N7YET. If no packets are shown the sender has not sent any weather packets the latest 1 day(s).
| Time | Temp. | Humidity | Pressure | Rain* | Wind** | Luminosity | Snow |
|---|---|---|---|---|---|---|---|
| 1778031309 | 5.56° C | 41% | 1231.9 hPa | 0 mm | 8.05 m/s, 15° | - | - |
| 1778030708 | 6.11° C | 39% | 1231.9 hPa | 0 mm | 8.94 m/s, 14° | - | - |
| 1778030107 | 6.11° C | 37% | 1231.9 hPa | 0 mm | 8.05 m/s, 13° | - | - |
| 1778029508 | 6.67° C | 36% | 1231.9 hPa | 0 mm | 8.49 m/s, 14° | - | - |
| 1778028906 | 7.22° C | 34% | 1231.9 hPa | 0 mm | 7.6 m/s, 12° | - | - |
| 1778028306 | 7.78° C | 33% | 1231.9 hPa | 0 mm | 8.49 m/s, 17° | - | - |
| 1778027705 | 8.33° C | 31% | 1231.9 hPa | 0 mm | 8.94 m/s, 17° | - | - |
| 1778027105 | 8.89° C | 31% | 1231.9 hPa | 0 mm | 8.49 m/s, 15° | - | - |
| 1778026504 | 10° C | 31% | 1231.9 hPa | 0 mm | 8.94 m/s, 18° | - | - |
| 1778025903 | 10° C | 31% | 1231.9 hPa | 0 mm | 9.39 m/s, 23° | - | - |
| 1778025302 | 10.56° C | 31% | 1231.9 hPa | 0 mm | 8.49 m/s, 17° | - | - |
| 1778024702 | 10.56° C | 31% | 1231.9 hPa | 0 mm | 8.05 m/s, 17° | - | - |
| 1778024101 | 10.56° C | 30% | 1231.9 hPa | 0 mm | 8.49 m/s, 23° | - | - |
| 1778023501 | 10° C | 30% | 1231.9 hPa | 0 mm | 6.71 m/s, 14° | - | - |
| 1778022900 | 11.11° C | 30% | 1231.9 hPa | 0 mm | 6.26 m/s, 14° | - | - |
| 1778022299 | 11.67° C | 30% | 1231.9 hPa | 0 mm | 7.6 m/s, 23° | - | - |
| 1778021699 | 11.11° C | 30% | 1231.9 hPa | 0 mm | 7.6 m/s, 26° | - | - |
| 1778021098 | 11.67° C | 29% | 1231.9 hPa | 0 mm | 6.71 m/s, 16° | - | - |
| 1778020497 | 12.22° C | 29% | 1231.9 hPa | 0 mm | 7.6 m/s, 17° | - | - |
| 1778019897 | 12.22° C | 29% | 1231.9 hPa | 0 mm | 7.15 m/s, 23° | - | - |
| 1778019296 | 12.22° C | 29% | 1231.9 hPa | 0 mm | 7.6 m/s, 26° | - | - |
| 1778018695 | 12.22° C | 29% | 1231.9 hPa | 0 mm | 7.15 m/s, 22° | - | - |
| 1778018095 | 12.22° C | 29% | 1231.9 hPa | 0 mm | 5.36 m/s, 14° | - | - |
| 1778017494 | 12.22° C | 29% | 1231.9 hPa | 0 mm | 6.71 m/s, 15° | - | - |
| 1778016894 | 12.78° C | 29% | 1231.9 hPa | 0 mm | 6.26 m/s, 10° | - | - |
* Rain latest hour (hover to see other rain measurements)
** Current wind speed in m/s (hover to see current wind gust speed)